Time;durP1;ratioP1;P1;durP2;ratioP2;P2;SDS_P1;SDS_P2;PMS_P1;PMS_P2;Temp;Humidity;BMP_temperature;BMP_pressure;BME280_temperature;BME280_humidity;BME280_pressure;Samples;Min_cycle;Max_cycle;Signal;HPM_P1;HPM_P2
2021/09/23 00:00:11;;;;;;;63.97;42.40;;;;;;;8.79;100.00;99646.00;2050603;29;20198;-76
2021/09/23 00:01:14;;;;;;;66.80;43.67;;;;;;;8.78;100.00;99647.06;2050365;29;20238;-76
2021/09/23 00:02:16;;;;;;;67.97;43.75;;;;;;;8.80;100.00;99647.59;2050488;29;20206;-76
2021/09/23 00:03:33;;;;;;;59.83;42.05;;;;;;;8.78;100.00;99641.75;2050814;29;20253;-77
2021/09/23 00:04:35;;;;;;;64.97;43.25;;;;;;;8.80;100.00;99644.13;2050477;29;20198;-76
2021/09/23 00:05:37;;;;;;;62.85;42.40;;;;;;;8.78;100.00;99636.41;2050594;29;20229;-77
2021/09/23 00:06:37;;;;;;;63.88;43.08;;;;;;;8.76;100.00;99638.53;2051113;29;20720;-76
2021/09/23 00:07:39;;;;;;;64.07;42.33;;;;;;;8.76;100.00;99630.53;2050325;29;20612;-76
2021/09/23 00:08:41;;;;;;;65.03;42.38;;;;;;;8.75;100.00;99631.63;2050529;29;20707;-77
2021/09/23 00:09:42;;;;;;;71.15;43.28;;;;;;;8.75;100.00;99628.94;2050397;29;20257;-77
2021/09/23 00:10:48;;;;;;;65.00;43.07;;;;;;;8.78;100.00;99639.06;2050790;29;20182;-76
2021/09/23 00:11:48;;;;;;;66.55;43.35;;;;;;;8.77;100.00;99632.13;2051347;28;20570;-76
2021/09/23 00:12:51;;;;;;;66.37;43.73;;;;;;;8.76;100.00;99639.31;2051098;29;20206;-77
2021/09/23 00:13:52;;;;;;;64.20;44.30;;;;;;;8.76;100.00;99631.34;2051060;29;20213;-77
2021/09/23 00:14:53;;;;;;;75.30;43.57;;;;;;;8.75;100.00;99635.06;2051099;29;20274;-76
2021/09/23 00:15:54;;;;;;;67.32;42.95;;;;;;;8.75;100.00;99629.75;2050356;29;20249;-76
2021/09/23 00:16:58;;;;;;;63.20;44.03;;;;;;;8.75;100.00;99628.94;2050514;29;20278;-77
2021/09/23 00:18:04;;;;;;;72.47;45.22;;;;;;;8.76;100.00;99627.88;2051254;28;20233;-77
2021/09/23 00:19:06;;;;;;;71.20;45.25;;;;;;;8.76;100.00;99631.34;2051165;29;20615;-76
2021/09/23 00:20:08;;;;;;;72.72;44.85;;;;;;;8.76;100.00;99631.34;2050247;29;20265;-77
2021/09/23 00:21:09;;;;;;;70.30;44.75;;;;;;;8.76;100.00;99630.53;2042101;29;20230;-76
2021/09/23 00:22:10;;;;;;;70.57;44.05;;;;;;;8.75;100.00;99620.97;2042448;29;20284;-77
2021/09/23 00:23:12;;;;;;;65.70;43.47;;;;;;;8.75;100.00;99624.44;2042471;29;20276;-76
2021/09/23 00:24:14;;;;;;;69.15;44.28;;;;;;;8.73;100.00;99618.59;2042396;29;20207;-77
2021/09/23 00:25:16;;;;;;;68.57;43.95;;;;;;;8.73;100.00;99613.28;2050544;29;20190;-77
2021/09/23 00:26:18;;;;;;;71.03;44.85;;;;;;;8.74;100.00;99617.50;2050986;29;20728;-77
2021/09/23 00:27:19;;;;;;;67.82;44.95;;;;;;;8.74;100.00;99612.19;2050864;28;20259;-76
2021/09/23 00:28:21;;;;;;;68.27;44.40;;;;;;;8.75;100.00;99623.63;2049779;29;20231;-77
2021/09/23 00:29:22;;;;;;;70.72;45.42;;;;;;;8.74;100.00;99625.50;2050418;29;20794;-76
2021/09/23 00:30:23;;;;;;;68.47;44.53;;;;;;;8.75;100.00;99620.97;2050230;29;20207;-77
2021/09/23 00:31:25;;;;;;;67.78;43.92;;;;;;;8.76;100.00;99619.91;2050563;29;20194;-76
2021/09/23 00:32:28;;;;;;;64.78;44.50;;;;;;;8.76;100.00;99625.22;2051058;29;20707;-77
2021/09/23 00:33:29;;;;;;;67.53;45.75;;;;;;;8.80;100.00;99620.19;2051123;29;20209;-77
2021/09/23 00:34:30;;;;;;;65.43;43.50;;;;;;;8.80;100.00;99623.63;2050255;29;20206;-77
2021/09/23 00:35:32;;;;;;;71.00;45.87;;;;;;;8.78;100.00;99618.59;2050379;29;20187;-76
2021/09/23 00:36:33;;;;;;;66.88;42.55;;;;;;;8.84;100.00;99618.56;2050322;29;20206;-76
2021/09/23 00:37:35;;;;;;;65.10;43.50;;;;;;;8.81;100.00;99617.25;2050318;29;20693;-77
2021/09/23 00:38:38;;;;;;;66.03;43.47;;;;;;;8.82;100.00;99623.34;2051147;29;20253;-77
2021/09/23 00:39:40;;;;;;;70.40;44.38;;;;;;;8.82;100.00;99621.50;2050200;29;20261;-76
2021/09/23 00:40:42;;;;;;;71.60;44.58;;;;;;;8.84;100.00;99610.56;2042347;29;20215;-76
2021/09/23 00:41:43;;;;;;;71.50;43.55;;;;;;;8.84;100.00;99615.91;2050339;29;20194;-77
2021/09/23 00:42:47;;;;;;;65.73;44.27;;;;;;;8.83;100.00;99615.09;2050872;29;20186;-76
2021/09/23 00:43:49;;;;;;;65.70;44.05;;;;;;;8.81;100.00;99616.44;2050181;29;20198;-77
2021/09/23 00:44:54;;;;;;;66.55;43.88;;;;;;;8.80;100.00;99615.66;2050094;29;20201;-77
2021/09/23 00:45:56;;;;;;;67.70;44.35;;;;;;;8.78;100.00;99613.28;2050330;29;20195;-77
2021/09/23 00:46:56;;;;;;;70.95;45.20;;;;;;;8.81;100.00;99614.59;2050125;29;20206;-77
2021/09/23 00:48:00;;;;;;;69.05;44.30;;;;;;;8.93;100.00;99615.06;2042599;29;20254;-76
2021/09/23 00:49:01;;;;;;;60.90;41.88;;;;;;;8.89;100.00;99618.56;2042319;29;20297;-76
2021/09/23 00:50:04;;;;;;;68.30;44.03;;;;;;;8.84;100.00;99615.91;2042163;29;20740;-76
2021/09/23 00:51:08;;;;;;;62.72;43.17;;;;;;;8.84;100.00;99622.00;2042694;29;20719;-77
2021/09/23 00:52:09;;;;;;;64.75;43.80;;;;;;;8.83;100.00;99614.31;2050234;29;20224;-76
2021/09/23 00:53:11;;;;;;;62.42;43.00;;;;;;;8.81;100.00;99614.59;2050046;29;20218;-76
2021/09/23 00:54:13;;;;;;;65.05;42.58;;;;;;;8.80;100.00;99609.53;2042402;29;20199;-76
2021/09/23 00:55:17;;;;;;;60.30;42.30;;;;;;;8.78;100.00;99601.84;2050084;29;20261;-77
2021/09/23 00:56:19;;;;;;;64.43;42.65;;;;;;;8.77;100.00;99616.19;2042584;29;20215;-76
2021/09/23 00:57:21;;;;;;;66.15;42.38;;;;;;;8.74;100.00;99606.09;2050086;29;20230;-76
2021/09/23 00:58:23;;;;;;;64.85;43.15;;;;;;;8.75;100.00;99605.00;2042249;29;20211;-77
2021/09/23 00:59:27;;;;;;;65.40;44.40;;;;;;;8.73;100.00;99601.84;2050113;29;20206;-77
2021/09/23 01:00:28;;;;;;;73.57;44.70;;;;;;;8.73;100.00;99612.47;2049827;29;20293;-76
2021/09/23 01:01:45;;;;;;;65.93;43.53;;;;;;;8.70;100.00;99611.16;2043766;29;20194;-76
2021/09/23 01:02:48;;;;;;;66.15;43.58;;;;;;;8.70;100.00;99619.13;2042991;29;20283;-76
2021/09/23 01:03:50;;;;;;;65.20;42.85;;;;;;;8.67;100.00;99613.53;2050033;29;20291;-76
2021/09/23 01:04:53;;;;;;;66.13;43.92;;;;;;;8.69;100.00;99614.09;2042356;29;20666;-77
2021/09/23 01:05:55;;;;;;;67.43;43.88;;;;;;;8.67;100.00;99610.88;2042323;29;20276;-76
2021/09/23 01:06:58;;;;;;;68.72;43.65;;;;;;;8.67;100.00;99613.53;2042254;29;20229;-76
2021/09/23 01:08:01;;;;;;;62.05;42.33;;;;;;;8.66;100.00;99607.44;2042409;29;20604;-76
2021/09/23 01:09:02;;;;;;;63.90;44.00;;;;;;;8.68;100.00;99613.28;2049996;29;20194;-76
2021/09/23 01:10:05;;;;;;;65.50;41.60;;;;;;;8.68;100.00;99613.28;2049971;29;20206;-76
2021/09/23 01:11:07;;;;;;;65.03;43.00;;;;;;;8.68;100.00;99612.47;2042269;29;20756;-76
2021/09/23 01:12:08;;;;;;;64.43;43.00;;;;;;;8.66;100.00;99609.28;2042187;29;20214;-77
2021/09/23 01:13:12;;;;;;;66.50;43.47;;;;;;;8.64;100.00;99606.91;2042095;29;20199;-77
2021/09/23 01:14:34;;;;;;;60.92;42.08;;;;;;;8.59;100.00;99601.59;2049922;29;20210;-76
2021/09/23 01:15:36;;;;;;;62.93;42.00;;;;;;;8.60;100.00;99592.56;2050022;29;20233;-76
2021/09/23 01:16:37;;;;;;;60.25;42.08;;;;;;;8.59;100.00;99593.59;2042089;29;20455;-76
2021/09/23 01:17:43;;;;;;;67.60;43.45;;;;;;;8.56;100.00;99590.69;2042544;29;20254;-76
2021/09/23 01:18:44;;;;;;;65.45;42.17;;;;;;;8.54;100.00;99596.28;2042094;29;20291;-76
2021/09/23 01:19:49;;;;;;;63.10;42.22;;;;;;;8.53;100.00;99593.91;2042057;29;20698;-76
2021/09/23 01:20:51;;;;;;;64.07;41.88;;;;;;;8.53;100.00;99593.91;2042351;29;20325;-77
2021/09/23 01:21:54;;;;;;;62.83;41.75;;;;;;;8.50;100.00;99596.00;2049885;29;20197;-76
2021/09/23 01:22:57;;;;;;;59.90;40.40;;;;;;;8.48;100.00;99589.38;2050206;28;20210;-77
2021/09/23 01:24:05;;;;;;;73.93;43.83;;;;;;;8.48;100.00;99592.84;2049526;29;20264;-76
2021/09/23 01:25:09;;;;;;;67.50;42.27;;;;;;;8.48;100.00;99595.50;2041947;29;20250;-76
2021/09/23 01:26:17;;;;;;;61.45;41.67;;;;;;;8.46;100.00;99588.84;2042538;29;20257;-76
2021/09/23 01:27:21;;;;;;;60.78;41.67;;;;;;;8.46;100.00;99583.53;2042563;29;20246;-76
2021/09/23 01:28:23;;;;;;;65.25;42.17;;;;;;;8.46;100.00;99592.31;2042540;29;20195;-77
2021/09/23 01:29:34;;;;;;;62.92;41.08;;;;;;;8.45;100.00;99587.28;2043077;29;20242;-76
2021/09/23 01:30:42;;;;;;;66.30;41.78;;;;;;;8.46;100.00;99589.66;2050227;29;20229;-76
2021/09/23 01:31:43;;;;;;;64.75;42.78;;;;;;;8.46;100.00;99584.34;2042077;29;20199;-76
2021/09/23 01:32:45;;;;;;;62.55;41.38;;;;;;;8.46;100.00;99581.69;2049864;29;20198;-77
2021/09/23 01:33:52;;;;;;;63.17;41.65;;;;;;;8.44;100.00;99578.50;2049811;29;20206;-76
2021/09/23 01:34:56;;;;;;;62.58;41.90;;;;;;;8.42;100.00;99583.25;2042389;29;20191;-76
2021/09/23 01:35:59;;;;;;;65.47;43.72;;;;;;;8.43;100.00;99584.88;2049939;29;20356;-76
2021/09/23 01:37:02;;;;;;;67.78;43.63;;;;;;;8.42;100.00;99582.47;2049933;29;20218;-76
2021/09/23 01:38:05;;;;;;;65.40;42.60;;;;;;;8.43;100.00;99578.78;2042209;29;20267;-76
2021/09/23 01:39:07;;;;;;;67.05;41.58;;;;;;;8.43;100.00;99584.88;2049952;28;20187;-76
2021/09/23 01:40:11;;;;;;;63.75;41.65;;;;;;;8.43;100.00;99579.56;2049603;29;20202;-77
2021/09/23 01:41:12;;;;;;;66.93;43.28;;;;;;;8.43;100.00;99582.22;2042059;29;20752;-76
2021/09/23 01:42:15;;;;;;;66.50;43.70;;;;;;;8.45;100.00;99588.06;2050060;29;20597;-77
2021/09/23 01:43:16;;;;;;;67.90;43.78;;;;;;;8.45;100.00;99584.63;2049372;29;20206;-77
2021/09/23 01:44:18;;;;;;;73.00;43.10;;;;;;;8.48;100.00;99586.72;2041892;29;20199;-76
2021/09/23 01:45:19;;;;;;;73.57;42.83;;;;;;;8.45;100.00;99585.41;2041802;29;20578;-77
2021/09/23 01:46:23;;;;;;;72.95;44.28;;;;;;;8.45;100.00;99588.06;2049709;29;20202;-76
2021/09/23 01:47:45;;;;;;;75.05;43.15;;;;;;;8.43;100.00;99579.56;2050032;29;20282;-77
2021/09/23 01:48:49;;;;;;;73.57;45.15;;;;;;;8.43;100.00;99584.88;2049697;29;20198;-76
2021/09/23 01:49:52;;;;;;;70.57;44.22;;;;;;;8.43;100.00;99590.19;2042005;29;20584;-77
2021/09/23 01:50:53;;;;;;;69.72;44.95;;;;;;;8.42;100.00;99588.59;2049686;29;20205;-76
2021/09/23 01:51:55;;;;;;;69.63;45.53;;;;;;;8.44;100.00;99596.31;2049912;29;20270;-76
2021/09/23 01:52:58;;;;;;;70.50;46.05;;;;;;;8.45;100.00;99603.22;2049656;29;20198;-76
2021/09/23 01:54:00;;;;;;;73.32;46.30;;;;;;;8.54;100.00;99596.28;2041838;29;20645;-77
2021/09/23 01:55:02;;;;;;;76.82;47.00;;;;;;;8.52;100.00;99587.78;2041570;29;20210;-77
2021/09/23 01:56:04;;;;;;;67.93;45.67;;;;;;;8.49;100.00;99575.81;2041885;29;20195;-76
2021/09/23 01:57:05;;;;;;;73.22;46.40;;;;;;;8.56;100.00;99577.41;2049646;29;20638;-76
2021/09/23 01:58:08;;;;;;;83.33;50.47;;;;;;;8.57;100.00;99573.69;2049588;28;20274;-76
2021/09/23 01:59:12;;;;;;;73.88;48.13;;;;;;;8.55;100.00;99570.50;2049785;29;20249;-76
2021/09/23 02:00:16;;;;;;;75.07;47.25;;;;;;;8.54;100.00;99567.03;2041993;29;20242;-77
2021/09/23 02:01:21;;;;;;;69.25;47.00;;;;;;;8.50;100.00;99552.66;2042416;29;20325;-76
2021/09/23 02:02:24;;;;;;;73.53;45.97;;;;;;;8.51;100.00;99559.56;2041785;29;20714;-76
2021/09/23 02:03:25;;;;;;;75.93;47.28;;;;;;;8.52;100.00;99552.44;2041800;29;20302;-76
2021/09/23 02:04:43;;;;;;;72.28;46.72;;;;;;;8.49;100.00;99549.22;2043801;29;20206;-76
2021/09/23 02:05:44;;;;;;;75.43;47.33;;;;;;;8.45;100.00;99544.72;2049603;29;20237;-76
2021/09/23 02:06:46;;;;;;;79.32;50.03;;;;;;;8.43;100.00;99545.00;2049662;29;20226;-76
2021/09/23 02:07:48;;;;;;;76.63;46.63;;;;;;;8.42;100.00;99540.72;2041363;29;20203;-77
2021/09/23 02:08:53;;;;;;;79.05;49.65;;;;;;;8.41;100.00;99544.44;2049594;29;20225;-77
2021/09/23 02:09:55;;;;;;;76.72;49.13;;;;;;;8.43;100.00;99538.88;2041751;29;20205;-76
2021/09/23 02:10:56;;;;;;;80.22;49.05;;;;;;;8.41;100.00;99544.44;2041779;29;20199;-77
2021/09/23 02:12:05;;;;;;;73.55;47.25;;;;;;;8.37;100.00;99543.41;2042605;29;20195;-76
2021/09/23 02:13:09;;;;;;;78.88;49.00;;;;;;;8.37;100.00;99538.09;2042130;29;20617;-77
2021/09/23 02:14:10;;;;;;;73.87;48.63;;;;;;;8.35;100.00;99542.88;2041604;29;20195;-76
2021/09/23 02:15:11;;;;;;;79.03;48.08;;;;;;;8.34;100.00;99543.94;2041649;29;20218;-76
2021/09/23 02:16:14;;;;;;;71.65;46.30;;;;;;;8.33;100.00;99547.63;2049497;29;20237;-76
2021/09/23 02:17:15;;;;;;;78.88;47.92;;;;;;;8.31;100.00;99544.44;2049494;29;20210;-77
2021/09/23 02:18:22;;;;;;;86.05;48.28;;;;;;;8.30;100.00;99544.72;2042528;29;20203;-77
2021/09/23 02:19:25;;;;;;;80.15;47.17;;;;;;;8.30;100.00;99552.69;2049413;29;20565;-76
2021/09/23 02:20:27;;;;;;;76.40;46.83;;;;;;;8.29;100.00;99543.91;2049634;28;20198;-77
2021/09/23 02:21:27;;;;;;;82.60;48.63;;;;;;;8.30;100.00;99547.38;2049402;29;20292;-76
2021/09/23 02:22:32;;;;;;;75.07;47.83;;;;;;;8.28;100.00;99544.19;2049609;29;20240;-77
2021/09/23 02:23:34;;;;;;;76.57;47.70;;;;;;;8.31;100.00;99539.13;2049572;29;20587;-77
2021/09/23 02:24:37;;;;;;;77.15;47.58;;;;;;;8.32;100.00;99546.03;2041566;29;20200;-76
2021/09/23 02:25:38;;;;;;;78.68;48.10;;;;;;;8.29;100.00;99538.59;2041658;29;20199;-76
2021/09/23 02:26:39;;;;;;;77.20;46.60;;;;;;;8.29;100.00;99535.94;2049428;29;20206;-76
2021/09/23 02:27:40;;;;;;;79.57;48.10;;;;;;;8.31;100.00;99533.81;2049480;29;20198;-76
2021/09/23 02:28:42;;;;;;;82.57;49.77;;;;;;;8.31;100.00;99528.50;2049478;29;20246;-77
2021/09/23 02:29:43;;;;;;;83.13;47.83;;;;;;;8.33;100.00;99533.53;2041537;29;20254;-77
2021/09/23 02:30:45;;;;;;;79.78;48.47;;;;;;;8.31;100.00;99522.38;2049374;29;20209;-76
2021/09/23 02:31:46;;;;;;;80.18;45.88;;;;;;;8.33;100.00;99522.91;2041598;29;20233;-77
2021/09/23 02:32:48;;;;;;;82.50;48.13;;;;;;;8.33;100.00;99533.53;2041368;29;20206;-77
2021/09/23 02:33:48;;;;;;;84.13;47.15;;;;;;;8.34;100.00;99530.63;2041610;29;20202;-76
2021/09/23 02:34:50;;;;;;;73.97;47.03;;;;;;;8.35;100.00;99526.94;2049485;29;20230;-76
2021/09/23 02:35:51;;;;;;;78.72;47.35;;;;;;;8.33;100.00;99522.91;2049389;29;20561;-77
2021/09/23 02:36:54;;;;;;;82.60;48.07;;;;;;;8.40;100.00;99518.13;2041552;29;20231;-77
2021/09/23 02:37:55;;;;;;;82.63;49.03;;;;;;;8.39;100.00;99514.69;2041702;29;20233;-76
2021/09/23 02:38:57;;;;;;;72.38;46.20;;;;;;;8.38;100.00;99514.97;2049479;29;20617;-76
2021/09/23 02:39:59;;;;;;;76.15;47.45;;;;;;;8.39;100.00;99516.53;2049340;29;20272;-77
2021/09/23 02:41:01;;;;;;;81.70;47.92;;;;;;;8.37;100.00;99516.81;2048995;29;20210;-76
2021/09/23 02:42:02;;;;;;;77.50;45.90;;;;;;;8.36;100.00;99519.75;2048901;29;20589;-77
2021/09/23 02:43:04;;;;;;;78.82;47.85;;;;;;;8.33;100.00;99521.03;2041407;29;20207;-76
2021/09/23 02:44:05;;;;;;;77.05;46.00;;;;;;;8.36;100.00;99525.88;2049527;29;20194;-76
2021/09/23 02:45:08;;;;;;;82.32;49.33;;;;;;;8.39;100.00;99521.88;2049679;29;20331;-76
2021/09/23 02:46:09;;;;;;;79.40;49.00;;;;;;;8.35;100.00;99521.63;2049415;29;20681;-77
2021/09/23 02:47:11;;;;;;;81.20;49.03;;;;;;;8.36;100.00;99509.13;2048971;29;20602;-76
2021/09/23 02:48:12;;;;;;;81.53;48.80;;;;;;;8.35;100.00;99495.03;2049260;29;20642;-77
2021/09/23 02:49:14;;;;;;;77.73;47.77;;;;;;;8.35;100.00;99499.56;2049286;29;20288;-76
2021/09/23 02:50:15;;;;;;;80.22;49.03;;;;;;;8.35;100.00;99500.34;2041113;29;20221;-77
2021/09/23 02:51:18;;;;;;;79.03;47.50;;;;;;;8.34;100.00;99514.69;2048837;28;20252;-76
2021/09/23 02:52:18;;;;;;;80.22;48.05;;;;;;;8.34;100.00;99511.19;2041552;29;20663;-77
2021/09/23 02:53:20;;;;;;;80.27;47.50;;;;;;;8.33;100.00;99510.41;2041369;29;20608;-76
2021/09/23 02:54:21;;;;;;;80.60;47.80;;;;;;;8.35;100.00;99521.63;2049321;29;20202;-76
2021/09/23 02:55:24;;;;;;;79.13;48.03;;;;;;;8.38;100.00;99523.72;2041346;29;20291;-76
2021/09/23 02:56:25;;;;;;;75.15;46.40;;;;;;;8.39;100.00;99520.00;2041428;29;20210;-77
2021/09/23 02:57:28;;;;;;;78.77;47.73;;;;;;;8.43;100.00;99517.63;2049247;29;20206;-76
2021/09/23 02:58:29;;;;;;;72.18;45.85;;;;;;;8.41;100.00;99511.75;2041434;29;20223;-76
2021/09/23 02:59:31;;;;;;;77.93;47.83;;;;;;;8.42;100.00;99508.03;2049243;29;20194;-76
2021/09/23 03:00:33;;;;;;;73.35;45.83;;;;;;;8.39;100.00;99509.38;2049074;29;20680;-77
2021/09/23 03:01:33;;;;;;;75.03;44.85;;;;;;;8.38;100.00;99507.78;2041264;29;20195;-76
2021/09/23 03:02:35;;;;;;;72.37;45.47;;;;;;;8.37;100.00;99500.88;2041448;29;20286;-76
2021/09/23 03:03:36;;;;;;;70.43;44.60;;;;;;;8.37;100.00;99500.88;2041391;29;20206;-76
2021/09/23 03:04:38;;;;;;;74.20;46.17;;;;;;;8.38;100.00;99497.13;2041299;29;20223;-77
2021/09/23 03:05:39;;;;;;;81.10;46.45;;;;;;;8.38;100.00;99493.69;2041441;29;20290;-76
2021/09/23 03:06:40;;;;;;;77.03;45.77;;;;;;;8.39;100.00;99489.97;2041217;29;20658;-77
2021/09/23 03:07:41;;;;;;;76.80;46.78;;;;;;;8.38;100.00;99496.34;2041422;29;20276;-77
2021/09/23 03:08:43;;;;;;;72.90;45.40;;;;;;;8.39;100.00;99501.38;2041270;29;20289;-76
2021/09/23 03:09:44;;;;;;;79.60;49.05;;;;;;;8.41;100.00;99507.22;2041377;29;20242;-76
2021/09/23 03:10:47;;;;;;;84.23;45.37;;;;;;;8.39;100.00;99506.72;2049428;29;20186;-77
2021/09/23 03:11:50;;;;;;;80.70;47.97;;;;;;;8.43;100.00;99504.31;2049274;29;20602;-76
2021/09/23 03:12:52;;;;;;;72.50;45.40;;;;;;;8.42;100.00;99506.16;2041610;29;20721;-76
2021/09/23 03:13:53;;;;;;;73.78;45.25;;;;;;;8.42;100.00;99503.50;2041375;29;20285;-76
2021/09/23 03:14:54;;;;;;;73.17;45.50;;;;;;;8.45;100.00;99505.63;2049158;29;20194;-76
2021/09/23 03:15:55;;;;;;;72.93;45.60;;;;;;;8.43;100.00;99504.31;2049197;29;20228;-76
2021/09/23 03:16:57;;;;;;;73.03;44.47;;;;;;;8.41;100.00;99506.44;2041254;29;20254;-76
2021/09/23 03:17:58;;;;;;;76.53;46.88;;;;;;;8.43;100.00;99509.63;2049256;29;20285;-76
2021/09/23 03:19:00;;;;;;;85.83;48.00;;;;;;;8.38;100.00;99491.81;2049153;29;20198;-76
2021/09/23 03:20:04;;;;;;;73.85;45.65;;;;;;;8.40;100.00;99500.31;2049308;29;20213;-76
2021/09/23 03:21:05;;;;;;;76.32;46.10;;;;;;;8.42;100.00;99498.19;2049245;29;20198;-77
2021/09/23 03:22:06;;;;;;;76.20;46.75;;;;;;;8.46;100.00;99498.44;2041186;29;20218;-76
2021/09/23 03:23:08;;;;;;;76.03;47.10;;;;;;;8.44;100.00;99497.94;2049283;29;20245;-76
2021/09/23 03:24:10;;;;;;;74.13;44.65;;;;;;;8.41;100.00;99490.47;2041278;29;20207;-77
2021/09/23 03:25:11;;;;;;;72.82;46.03;;;;;;;8.40;100.00;99495.00;2041362;29;20620;-76
2021/09/23 03:26:17;;;;;;;75.53;46.22;;;;;;;8.37;100.00;99487.56;2048794;29;20210;-76
2021/09/23 03:27:22;;;;;;;72.65;45.60;;;;;;;8.35;100.00;99489.72;2042045;29;20310;-76
2021/09/23 03:28:23;;;;;;;76.90;46.38;;;;;;;8.37;100.00;99484.13;2049241;29;20202;-77
2021/09/23 03:29:25;;;;;;;76.43;45.67;;;;;;;8.32;100.00;99490.19;2049062;29;20209;-77
2021/09/23 03:30:27;;;;;;;72.80;44.88;;;;;;;8.31;100.00;99488.63;2049301;29;20585;-77
2021/09/23 03:31:27;;;;;;;77.03;44.22;;;;;;;8.31;100.00;99483.31;2049864;29;20202;-77
2021/09/23 03:32:29;;;;;;;75.87;45.03;;;;;;;8.33;100.00;99491.00;2049744;29;20281;-76
2021/09/23 03:33:30;;;;;;;78.03;44.63;;;;;;;8.35;100.00;99491.56;2049844;29;20191;-77
2021/09/23 03:34:32;;;;;;;75.80;44.60;;;;;;;8.33;100.00;99491.00;2049858;29;20194;-77
2021/09/23 03:35:34;;;;;;;76.45;45.13;;;;;;;8.31;100.00;99496.59;2049729;29;20205;-76
2021/09/23 03:36:36;;;;;;;71.75;43.38;;;;;;;8.29;100.00;99498.72;2049787;28;20193;-77
2021/09/23 03:37:37;;;;;;;84.47;45.63;;;;;;;8.27;100.00;99502.72;2049090;29;20222;-76
2021/09/23 03:38:40;;;;;;;75.60;44.77;;;;;;;8.25;100.00;99500.31;2049044;29;20669;-76
2021/09/23 03:39:42;;;;;;;78.10;45.53;;;;;;;8.24;100.00;99504.03;2041631;29;20207;-77
2021/09/23 03:40:45;;;;;;;76.10;45.30;;;;;;;8.27;100.00;99497.41;2049024;29;20202;-77
2021/09/23 03:41:47;;;;;;;73.70;44.13;;;;;;;8.24;100.00;99496.06;2049055;29;20195;-77
2021/09/23 03:42:50;;;;;;;71.38;44.38;;;;;;;8.25;100.00;99505.63;2048580;29;20724;-76
2021/09/23 03:43:51;;;;;;;74.88;45.08;;;;;;;8.22;100.00;99496.34;2049718;29;20201;-76
2021/09/23 03:44:52;;;;;;;69.45;42.85;;;;;;;8.23;100.00;99497.16;2048977;29;20661;-77
2021/09/23 03:45:56;;;;;;;69.55;44.10;;;;;;;8.21;100.00;99501.94;2041236;29;20708;-77
2021/09/23 03:46:58;;;;;;;68.07;43.28;;;;;;;8.20;100.00;99505.66;2049508;28;20253;-77
2021/09/23 03:47:59;;;;;;;72.10;43.28;;;;;;;8.18;100.00;99502.47;2056977;28;20197;-76
2021/09/23 03:49:03;;;;;;;71.53;42.43;;;;;;;8.18;100.00;99505.94;2049048;29;20277;-76
2021/09/23 03:50:05;;;;;;;75.18;43.72;;;;;;;8.17;100.00;99503.56;2041601;29;20693;-77
2021/09/23 03:51:07;;;;;;;71.53;44.03;;;;;;;8.16;100.00;99504.59;2049262;29;20206;-76
2021/09/23 03:52:08;;;;;;;70.13;42.55;;;;;;;8.15;100.00;99503.00;2041384;29;20255;-76
2021/09/23 03:53:09;;;;;;;69.80;41.67;;;;;;;8.15;100.00;99508.31;2049008;29;20202;-76
2021/09/23 03:54:10;;;;;;;72.15;44.33;;;;;;;8.15;100.00;99513.63;2049359;29;20199;-76
2021/09/23 03:55:17;;;;;;;65.88;42.20;;;;;;;8.14;100.00;99506.72;2049032;29;20284;-77
2021/09/23 03:56:18;;;;;;;64.85;42.10;;;;;;;8.15;100.00;99513.63;2049148;29;20218;-76
2021/09/23 03:57:25;;;;;;;70.32;43.53;;;;;;;8.15;100.00;99513.63;2048673;29;20214;-77
2021/09/23 03:58:26;;;;;;;68.88;42.42;;;;;;;8.14;100.00;99507.53;2041344;29;20219;-76
2021/09/23 03:59:28;;;;;;;67.20;41.30;;;;;;;8.16;100.00;99507.25;2041046;29;20203;-77
2021/09/23 04:00:30;;;;;;;71.22;42.78;;;;;;;8.15;100.00;99508.31;2041080;29;20372;-77
2021/09/23 04:01:31;;;;;;;70.18;41.70;;;;;;;8.17;100.00;99511.53;2049404;29;20654;-76
2021/09/23 04:02:37;;;;;;;70.68;41.95;;;;;;;8.16;100.00;99517.88;2041128;29;20227;-76
2021/09/23 04:03:38;;;;;;;68.25;41.55;;;;;;;8.17;100.00;99519.50;2043160;29;20207;-76
2021/09/23 04:04:40;;;;;;;65.17;40.90;;;;;;;8.16;100.00;99510.69;2050238;29;20206;-76
2021/09/23 04:05:41;;;;;;;64.45;41.03;;;;;;;8.19;100.00;99509.38;2042592;29;20207;-77
2021/09/23 04:06:43;;;;;;;61.42;41.15;;;;;;;8.18;100.00;99513.91;2042814;29;20709;-76
2021/09/23 04:07:48;;;;;;;69.65;42.92;;;;;;;8.20;100.00;99510.97;2050978;28;20202;-77
2021/09/23 04:08:49;;;;;;;64.80;40.72;;;;;;;8.19;100.00;99512.03;2058566;28;20200;-76
2021/09/23 04:09:54;;;;;;;70.78;41.95;;;;;;;8.20;100.00;99503.81;2050426;29;20194;-76
2021/09/23 04:10:55;;;;;;;65.30;40.10;;;;;;;8.21;100.00;99492.09;2043145;29;20210;-77
2021/09/23 04:11:57;;;;;;;61.87;41.37;;;;;;;8.21;100.00;99501.94;2042530;29;20234;-76
2021/09/23 04:13:00;;;;;;;62.67;40.63;;;;;;;8.19;100.00;99499.56;2042784;29;20649;-77
2021/09/23 04:14:02;;;;;;;66.88;40.65;;;;;;;8.20;100.00;99500.34;2042666;29;20686;-76
2021/09/23 04:15:06;;;;;;;67.18;41.28;;;;;;;8.23;100.00;99487.31;2042571;29;20207;-76
2021/09/23 04:16:07;;;;;;;67.10;41.08;;;;;;;8.25;100.00;99486.22;2042749;29;20282;-76
2021/09/23 04:17:09;;;;;;;61.33;40.90;;;;;;;8.22;100.00;99493.69;2042698;29;20206;-76
2021/09/23 04:18:09;;;;;;;66.25;40.45;;;;;;;8.26;100.00;99486.00;2050378;29;20316;-77
2021/09/23 04:19:11;;;;;;;64.30;40.07;;;;;;;8.23;100.00;99481.19;2042482;29;20195;-76
2021/09/23 04:20:16;;;;;;;66.47;40.15;;;;;;;8.18;100.00;99483.88;2043401;29;20303;-76
2021/09/23 04:21:25;;;;;;;58.92;38.22;;;;;;;8.17;100.00;99488.41;2050381;29;20198;-76
2021/09/23 04:22:26;;;;;;;65.72;39.47;;;;;;;8.12;100.00;99482.28;2042546;29;20268;-77
2021/09/23 04:23:28;;;;;;;60.87;39.63;;;;;;;8.12;100.00;99479.63;2042444;29;20221;-76
2021/09/23 04:24:29;;;;;;;67.38;40.97;;;;;;;8.12;100.00;99492.91;2050389;29;20198;-77
2021/09/23 04:25:31;;;;;;;61.42;38.65;;;;;;;8.14;100.00;99493.44;2042488;29;20206;-76
2021/09/23 04:26:32;;;;;;;63.42;38.88;;;;;;;8.11;100.00;99488.69;2042453;29;20199;-76
2021/09/23 04:27:34;;;;;;;54.63;37.90;;;;;;;8.12;100.00;99484.94;2050418;29;20685;-76
2021/09/23 04:28:36;;;;;;;60.83;39.05;;;;;;;8.11;100.00;99476.19;2042452;29;20206;-77
2021/09/23 04:29:39;;;;;;;61.00;39.67;;;;;;;8.11;100.00;99478.03;2042589;29;20198;-77
2021/09/23 04:30:43;;;;;;;57.13;38.53;;;;;;;8.09;100.00;99474.88;2050355;29;20186;-76
2021/09/23 04:31:48;;;;;;;68.90;39.72;;;;;;;8.06;100.00;99483.34;2042469;29;20231;-76
2021/09/23 04:32:49;;;;;;;57.40;39.03;;;;;;;8.04;100.00;99482.84;2042898;29;20289;-76
2021/09/23 04:33:50;;;;;;;59.97;38.33;;;;;;;8.04;100.00;99486.28;2050385;29;20712;-77
2021/09/23 04:34:51;;;;;;;61.97;39.50;;;;;;;8.06;100.00;99489.47;2042442;29;20214;-76
2021/09/23 04:35:54;;;;;;;61.67;38.60;;;;;;;8.07;100.00;99485.75;2050334;29;20229;-77
2021/09/23 04:36:57;;;;;;;60.38;38.83;;;;;;;8.06;100.00;99483.34;2042659;29;20199;-77
2021/09/23 04:38:00;;;;;;;63.60;37.97;;;;;;;8.06;100.00;99467.41;2042393;29;20210;-76
2021/09/23 04:39:02;;;;;;;71.35;41.30;;;;;;;8.07;100.00;99480.44;2050247;29;20310;-76
2021/09/23 04:40:05;;;;;;;59.17;37.25;;;;;;;8.12;100.00;99487.59;2042405;29;20228;-76
2021/09/23 04:41:07;;;;;;;61.45;38.28;;;;;;;8.13;100.00;99494.50;2042510;29;20203;-76
2021/09/23 04:42:09;;;;;;;61.83;38.35;;;;;;;8.15;100.00;99492.38;2042501;29;20198;-77
2021/09/23 04:43:11;;;;;;;55.63;36.07;;;;;;;8.15;100.00;99493.16;2042336;29;20250;-77
2021/09/23 04:44:14;;;;;;;60.53;37.67;;;;;;;8.18;100.00;99494.50;2042285;29;20203;-76
2021/09/23 04:45:15;;;;;;;61.05;38.00;;;;;;;8.19;100.00;99488.13;2050191;29;20206;-77
2021/09/23 04:46:22;;;;;;;62.47;39.00;;;;;;;8.22;100.00;99492.91;2042497;29;20666;-76
2021/09/23 04:47:27;;;;;;;59.22;37.78;;;;;;;8.23;100.00;99494.47;2050209;29;20194;-77